Aeroporto :
LOGIN :

Iscrizione | Disclaimer

   EN    FR    IT 

 










Sommario :    VFR   VFR Marginale   IFR   IFR Intensivo   IFR Molto Intensivo
Visibilità : 
Base nubi : 
>= 8 km
>= 3000ft
5 / 8 km
1000 / 3000 ft
1500m / 5 km
500 / 1000 ft
800 / 1500m
200 / 500 ft
< 800m
< 200 ft
Simboli :   Temporali  Nebbia  Neve Forte  Precipitazioni Forti  Vento > 20 kt
SIGMETs :   Varie  Temporali  Ghiacco  Turbolenza  Onda orograficha  Ceneri Vulcaniche






- Altitudine del aeroporto : 405 ft
- Codice IATA : SUJ


LRSM - Satu Mare

ULTIMO METAR :
  • 240800Z 21008KT 9999 SCT011 OVC043 12/10 Q1002

METARs OBSOLETI :
  • 240730Z 19009KT 5000 -DZ FEW005 OVC015 11/09 Q1002
  • 240700Z 19007KT 5000 -DZ FEW004 OVC016 10/09 Q1002 REDZ
  • 240630Z 19009KT 3000 DZ FEW004 OVC013 10/09 Q1002 RERA
  • 240600Z 19010KT 3000 DZRA FEW005 OVC009 10/09 Q1002
  • 240530Z 19006KT 9999 -RA SCT015 OVC030 10/09 Q1002
  • 240500Z 17005KT 9999 FEW026 FEW033CB OVC041 10/08 Q1002
  • 240430Z 18004KT 9999 -SHRA FEW023 FEW033CB OVC041 10/08 Q1002
  • 240400Z VRB02KT 9999 -RA BKN026 OVC042 10/08 Q1002
  • 240330Z AUTO 00000KT 9999 -DZ BKN028/// OVC065/// 09/08 Q1002

TAF TAF LRSM
Valido dal 24 a 06 ore il 24 a 15 ore UTC


240500Z 2406/2415 VRB04KT 9999 SCT020 OVC040
TEMPO 2406/2412 5000 -RA BR BKN015 FEW035CB BKN040
BECMG 2407/2409 22010KT
TEMPO 2412/2415 25017G27KT 5000 TSRA BKN015 SCT030CB BKN035



MetMap, La meteo Aeronautica in un colpo d'occhio ! - Copyright ORBIFLY Dicembre 2007 - Disclaimer

ORBIFLY MET'MAP TEAM :

Programmazione e sviluppo : Alexandra Zaïnal
Concezione : Baudouin d'Aumeries
Supporto tecnico e logistico : Manuel Goepfert
Aiuto : Marc-Olivier Méhu
Aiuto per la traduzione : Arnaldo La Scala




FONTI E CREDITI :

   NOAA